createdAt,value
2019-04-10T00:00:02.377Z,101710.59
2019-04-10T00:02:29.803Z,101708.86
2019-04-10T00:04:56.952Z,101710.59
2019-04-10T00:07:24.026Z,101714.56
2019-04-10T00:09:51.680Z,101713.28
2019-04-10T00:12:18.757Z,101708.91
2019-04-10T00:14:45.856Z,101716.80
2019-04-10T00:17:13.197Z,101714.20
2019-04-10T00:19:40.418Z,101713.28
2019-04-10T00:22:07.500Z,101715.50
2019-04-10T00:24:34.554Z,101715.94
2019-04-10T00:27:02.650Z,101714.14
2019-04-10T00:29:29.994Z,101717.19
2019-04-10T00:32:00.123Z,101712.77
2019-04-10T00:34:26.077Z,101721.47
2019-04-10T00:36:53.400Z,101710.16
2019-04-10T00:39:20.533Z,101717.62
2019-04-10T00:41:48.360Z,101717.19
2019-04-10T00:44:15.472Z,101725.47
2019-04-10T00:46:42.550Z,101714.07
2019-04-10T00:49:09.622Z,101728.02
2019-04-10T00:51:36.686Z,101723.23
2019-04-10T00:54:03.768Z,101729.33
2019-04-10T00:56:30.875Z,101722.80
2019-04-10T00:58:57.980Z,101733.30
2019-04-10T01:01:25.044Z,101729.82
2019-04-10T01:03:52.151Z,101731.57
2019-04-10T01:06:19.893Z,101734.18
2019-04-10T01:08:46.995Z,101737.72
2019-04-10T01:11:15.042Z,101734.67
2019-04-10T01:13:43.140Z,101739.94
2019-04-10T01:16:11.352Z,101742.57
2019-04-10T01:18:39.506Z,101742.13
2019-04-10T01:21:06.642Z,101738.20
2019-04-10T01:23:33.708Z,101736.42
2019-04-10T01:26:03.005Z,101743.86
2019-04-10T01:28:33.065Z,101745.56
2019-04-10T01:31:00.268Z,101743.88
2019-04-10T01:33:28.265Z,101748.66
2019-04-10T01:35:56.332Z,101751.72
2019-04-10T01:38:23.518Z,101745.17
2019-04-10T01:40:51.146Z,101751.72
2019-04-10T01:43:19.949Z,101748.67
2019-04-10T01:45:47.181Z,101753.09
2019-04-10T01:48:15.362Z,101753.41
2019-04-10T01:50:42.635Z,101752.53
2019-04-10T01:53:09.702Z,101751.64
2019-04-10T01:55:36.764Z,101755.14
2019-04-10T01:58:06.899Z,101758.98
2019-04-10T02:00:35.394Z,101753.75
2019-04-10T02:03:03.433Z,101762.05
2019-04-10T02:05:32.461Z,101760.78
2019-04-10T02:08:07.949Z,101766.44
2019-04-10T02:10:28.571Z,101764.23
2019-04-10T02:12:55.652Z,101770.31
2019-04-10T02:15:22.820Z,101767.77
2019-04-10T02:17:49.878Z,101767.77
2019-04-10T02:20:17.049Z,101770.44
2019-04-10T02:22:44.124Z,101776.09
2019-04-10T02:25:11.638Z,101775.67
2019-04-10T02:27:38.700Z,101780.02
2019-04-10T02:30:08.169Z,101784.36
2019-04-10T02:32:37.072Z,101774.78
2019-04-10T02:35:06.242Z,101774.31
2019-04-10T02:37:35.049Z,101783.50
2019-04-10T02:40:04.864Z,101776.03
2019-04-10T02:42:32.387Z,101776.89
2019-04-10T02:44:59.652Z,101776.89
2019-04-10T02:47:26.718Z,101774.67
2019-04-10T02:49:54.515Z,101796.07
2019-04-10T02:52:22.595Z,101790.83
2019-04-10T02:54:51.091Z,101788.17
2019-04-10T02:57:19.465Z,101787.73
2019-04-10T02:59:47.864Z,101790.78
2019-04-10T03:02:16.195Z,101797.69
2019-04-10T03:04:44.520Z,101796.88
2019-04-10T03:07:12.219Z,101803.83
2019-04-10T03:09:53.312Z,101799.93
2019-04-10T03:12:10.299Z,101804.34
2019-04-10T03:14:39.027Z,101803.05
2019-04-10T03:17:08.061Z,101795.63
2019-04-10T03:19:35.846Z,101801.71
2019-04-10T03:22:03.862Z,101799.55
2019-04-10T03:24:31.549Z,101802.60
2019-04-10T03:26:58.723Z,101805.64
2019-04-10T03:29:25.815Z,101810.86
2019-04-10T03:31:54.710Z,101805.64
2019-04-10T03:34:30.360Z,101810.86
2019-04-10T03:36:56.028Z,101807.32
2019-04-10T03:39:23.727Z,101805.16
2019-04-10T03:41:52.605Z,101809.93
2019-04-10T03:44:20.740Z,101811.62
2019-04-10T03:46:48.973Z,101810.31
2019-04-10T03:49:16.186Z,101813.30
2019-04-10T03:51:43.254Z,101814.17
2019-04-10T03:54:11.102Z,101823.31
2019-04-10T03:56:38.290Z,101815.52
2019-04-10T03:59:06.254Z,101831.58
2019-04-10T04:01:33.442Z,101829.83
2019-04-10T04:04:01.476Z,101830.26
2019-04-10T04:06:28.680Z,101834.61
2019-04-10T04:09:06.930Z,101830.26
2019-04-10T04:11:25.769Z,101837.28
2019-04-10T04:13:53.006Z,101836.87
2019-04-10T04:16:20.137Z,101841.28
2019-04-10T04:18:49.165Z,101841.28
2019-04-10T04:21:17.210Z,101843.09
2019-04-10T04:23:44.742Z,101848.31
2019-04-10T04:26:12.695Z,101843.09
2019-04-10T04:28:39.873Z,101849.14
2019-04-10T04:31:07.426Z,101856.58
2019-04-10T04:33:34.678Z,101847.88
2019-04-10T04:36:02.025Z,101853.06
2019-04-10T04:38:29.262Z,101852.18
2019-04-10T04:40:56.314Z,101855.27
2019-04-10T04:43:23.466Z,101857.47
2019-04-10T04:45:51.536Z,101854.00
2019-04-10T04:48:19.506Z,101854.48
2019-04-10T04:50:46.774Z,101853.97
2019-04-10T04:53:14.259Z,101858.77
2019-04-10T04:55:41.419Z,101859.23
2019-04-10T04:58:09.606Z,101860.52
2019-04-10T05:00:37.488Z,101862.25
2019-04-10T05:03:04.762Z,101877.44
2019-04-10T05:05:33.694Z,101862.12
2019-04-10T05:08:02.945Z,101875.70
2019-04-10T05:10:29.680Z,101875.75
2019-04-10T05:12:57.800Z,101878.78
2019-04-10T05:15:24.951Z,101875.31
2019-04-10T05:17:52.014Z,101881.41
2019-04-10T05:20:19.075Z,101883.07
2019-04-10T05:22:46.190Z,101879.61
2019-04-10T05:25:13.308Z,101880.86
2019-04-10T05:27:41.352Z,101883.97
2019-04-10T05:30:08.800Z,101890.55
2019-04-10T05:32:35.984Z,101883.59
2019-04-10T05:35:05.783Z,101897.59
2019-04-10T05:37:33.569Z,101891.94
2019-04-10T05:40:01.543Z,101893.69
2019-04-10T05:42:28.988Z,101884.59
2019-04-10T05:44:56.534Z,101895.92
2019-04-10T05:47:23.739Z,101897.18
2019-04-10T05:49:50.812Z,101902.03
2019-04-10T05:52:18.260Z,101898.97
2019-04-10T05:54:45.489Z,101900.66
2019-04-10T05:57:12.576Z,101902.41
2019-04-10T05:59:40.455Z,101901.58
2019-04-10T06:02:08.015Z,101905.56
2019-04-10T06:04:36.458Z,101908.63
2019-04-10T06:07:03.549Z,101910.36
2019-04-10T06:09:31.131Z,101906.46
2019-04-10T06:11:58.456Z,101906.52
2019-04-10T06:14:26.649Z,101907.81
2019-04-10T06:16:53.707Z,101906.95
2019-04-10T06:19:21.928Z,101911.31
2019-04-10T06:21:50.312Z,101916.98
2019-04-10T06:24:18.313Z,101917.41
2019-04-10T06:26:45.906Z,101912.55
2019-04-10T06:29:13.129Z,101916.48
2019-04-10T06:31:41.586Z,101923.02
2019-04-10T06:34:08.966Z,101923.52
2019-04-10T06:36:36.180Z,101922.66
2019-04-10T06:39:06.635Z,101921.78
2019-04-10T06:41:34.823Z,101926.88
2019-04-10T06:44:02.176Z,101924.33
2019-04-10T06:46:29.259Z,101928.30
2019-04-10T06:48:56.386Z,101934.89
2019-04-10T06:51:23.404Z,101933.18
2019-04-10T06:54:00.894Z,101931.94
2019-04-10T06:56:20.885Z,101933.24
2019-04-10T06:58:48.107Z,101931.13
2019-04-10T07:01:15.204Z,101942.45
2019-04-10T07:03:51.911Z,101940.30
2019-04-10T07:06:17.046Z,101943.78
2019-04-10T07:08:40.371Z,101937.23
2019-04-10T07:11:10.585Z,101953.77
2019-04-10T07:13:39.972Z,101946.31
2019-04-10T07:16:10.256Z,101948.48
2019-04-10T07:18:38.630Z,101949.67
2019-04-10T07:21:06.877Z,101945.75
2019-04-10T07:23:33.943Z,101947.97
2019-04-10T07:26:01.828Z,101958.01
2019-04-10T07:28:33.276Z,101954.56
2019-04-10T07:31:04.627Z,101948.36
2019-04-10T07:33:31.300Z,101947.10
2019-04-10T07:36:06.735Z,101954.56
2019-04-10T07:38:32.964Z,101952.40
2019-04-10T07:41:00.244Z,101960.24
2019-04-10T07:43:29.116Z,101946.74
2019-04-10T07:45:56.875Z,101959.30
2019-04-10T07:48:25.095Z,101959.31
2019-04-10T07:50:53.546Z,101963.59
2019-04-10T07:53:24.430Z,101960.08
2019-04-10T07:56:02.397Z,101961.41
2019-04-10T07:58:23.728Z,101973.62
2019-04-10T08:00:54.694Z,101967.16
2019-04-10T08:03:22.850Z,101972.37
2019-04-10T08:05:50.331Z,101975.87
2019-04-10T08:08:17.443Z,101975.92
2019-04-10T08:10:45.127Z,101980.34
2019-04-10T08:13:16.164Z,101977.77
2019-04-10T08:15:43.479Z,101984.92
2019-04-10T08:18:13.258Z,101984.58
2019-04-10T08:20:42.848Z,101993.36
2019-04-10T08:23:12.334Z,101991.16
2019-04-10T08:25:40.917Z,101990.75
2019-04-10T08:28:12.950Z,102001.64
2019-04-10T08:30:40.027Z,101998.21
2019-04-10T08:33:14.091Z,101988.19
2019-04-10T08:35:41.939Z,101999.52
2019-04-10T08:38:09.740Z,101995.98
2019-04-10T08:40:36.988Z,102003.37
2019-04-10T08:43:04.220Z,101996.48
2019-04-10T08:45:40.367Z,102006.52
2019-04-10T08:48:01.360Z,102003.95
2019-04-10T08:50:30.828Z,101997.80
2019-04-10T08:52:57.960Z,102003.97
2019-04-10T08:55:26.043Z,101997.98
2019-04-10T08:57:54.521Z,102010.64
2019-04-10T09:00:23.408Z,102012.96
2019-04-10T09:02:51.022Z,102010.41
2019-04-10T09:05:18.186Z,102013.11
2019-04-10T09:07:46.396Z,102014.40
2019-04-10T09:10:16.340Z,102013.47
2019-04-10T09:12:43.464Z,102016.56
2019-04-10T09:15:13.874Z,102026.13
2019-04-10T09:17:41.780Z,102021.80
2019-04-10T09:20:09.293Z,102016.60
2019-04-10T09:23:05.590Z,102020.20
2019-04-10T09:25:07.586Z,102011.56
2019-04-10T09:27:35.858Z,102011.18
2019-04-10T09:30:04.590Z,102018.55
2019-04-10T09:32:32.620Z,102028.50
2019-04-10T09:35:00.305Z,102026.75
2019-04-10T09:37:28.229Z,102029.75
2019-04-10T09:39:58.080Z,102027.13
2019-04-10T09:42:25.632Z,102030.61
2019-04-10T09:44:52.882Z,102040.28
2019-04-10T09:47:20.595Z,102031.13
2019-04-10T09:49:47.894Z,102036.42
2019-04-10T09:52:14.970Z,102041.72
2019-04-10T09:54:42.531Z,102039.09
2019-04-10T09:57:09.921Z,102042.58
2019-04-10T09:59:39.655Z,102042.95
2019-04-10T10:02:07.000Z,102035.11
2019-04-10T10:04:34.133Z,102049.92
2019-04-10T10:07:01.936Z,102036.42
2019-04-10T10:09:29.590Z,102059.16
2019-04-10T10:11:58.853Z,102066.14
2019-04-10T10:14:26.573Z,102061.83
2019-04-10T10:16:53.706Z,102067.92
2019-04-10T10:19:21.820Z,102056.91
2019-04-10T10:21:50.497Z,102063.89
2019-04-10T10:24:18.282Z,102059.10
2019-04-10T10:26:46.549Z,102065.61
2019-04-10T10:29:13.890Z,102064.32
2019-04-10T10:31:41.386Z,102072.55
2019-04-10T10:34:08.499Z,102067.81
2019-04-10T10:36:41.277Z,102065.70
2019-04-10T10:39:14.802Z,102068.80
2019-04-10T10:41:42.752Z,102072.81
2019-04-10T10:44:12.878Z,102068.02
2019-04-10T10:46:40.262Z,102071.13
2019-04-10T10:49:08.411Z,102072.02
2019-04-10T10:51:35.565Z,102076.30
2019-04-10T10:54:04.205Z,102078.63
2019-04-10T10:56:31.649Z,102077.87
2019-04-10T10:58:59.100Z,102083.12
2019-04-10T11:01:28.148Z,102084.48
2019-04-10T11:03:56.265Z,102083.17
2019-04-10T11:06:24.681Z,102087.98
2019-04-10T11:08:51.873Z,102093.70
2019-04-10T11:11:20.078Z,102092.43
2019-04-10T11:13:47.132Z,102094.73
2019-04-10T11:16:14.449Z,102089.62
2019-04-10T11:18:42.519Z,102093.97
2019-04-10T11:21:12.256Z,102097.91
2019-04-10T11:23:38.877Z,102096.98
2019-04-10T11:26:06.146Z,102091.37
2019-04-10T11:28:33.789Z,102098.41
2019-04-10T11:31:01.819Z,102090.98
2019-04-10T11:33:28.993Z,102101.83
2019-04-10T11:35:56.185Z,102104.89
2019-04-10T11:38:25.662Z,102112.30
2019-04-10T11:40:57.345Z,102111.39
2019-04-10T11:43:21.616Z,102113.99
2019-04-10T11:45:53.792Z,102113.56
2019-04-10T11:48:20.049Z,102105.33
2019-04-10T11:50:48.500Z,102105.78
2019-04-10T11:53:17.783Z,102111.63
2019-04-10T11:55:50.225Z,102133.09
2019-04-10T11:58:15.572Z,102122.23
2019-04-10T12:00:50.543Z,102112.21
2019-04-10T12:03:12.773Z,102113.02
2019-04-10T12:05:42.932Z,102116.58
2019-04-10T12:08:33.732Z,102115.40
2019-04-10T12:13:08.223Z,102124.33
2019-04-10T12:15:36.436Z,102124.92
2019-04-10T12:18:04.455Z,102122.80
2019-04-10T12:20:31.631Z,102132.36
2019-04-10T12:22:58.758Z,102143.28
2019-04-10T12:25:27.042Z,102132.85
2019-04-10T12:27:54.232Z,102138.95
2019-04-10T12:30:21.741Z,102141.20
2019-04-10T12:32:49.265Z,102139.04
2019-04-10T12:35:17.206Z,102143.88
2019-04-10T12:37:45.409Z,102138.66
2019-04-10T12:40:13.943Z,102147.84
2019-04-10T12:42:41.076Z,102141.77
2019-04-10T12:45:09.175Z,102139.14
2019-04-10T12:47:36.254Z,102146.08
2019-04-10T12:50:03.850Z,102156.94
2019-04-10T12:52:30.994Z,102156.00
2019-04-10T12:54:58.065Z,102148.64
2019-04-10T12:57:25.157Z,102158.19
2019-04-10T12:59:59.444Z,102161.18
2019-04-10T13:02:22.557Z,102155.87
2019-04-10T13:04:49.790Z,102153.19
2019-04-10T13:07:16.907Z,102154.98
2019-04-10T13:09:44.299Z,102155.37
2019-04-10T13:12:13.272Z,102159.30
2019-04-10T13:14:41.248Z,102162.91
2019-04-10T13:17:08.877Z,102161.06
2019-04-10T13:19:36.120Z,102168.03
2019-04-10T13:22:04.062Z,102163.16
2019-04-10T13:24:31.205Z,102166.59
2019-04-10T13:26:58.625Z,102161.38
2019-04-10T13:29:25.705Z,102162.59
2019-04-10T13:31:53.669Z,102167.70
2019-04-10T13:34:21.513Z,102172.83
2019-04-10T13:36:48.673Z,102168.82
2019-04-10T13:39:17.721Z,102171.80
2019-04-10T13:41:44.978Z,102180.97
2019-04-10T13:44:12.138Z,102171.48
2019-04-10T13:46:41.509Z,102175.50
2019-04-10T13:49:09.614Z,102181.67
2019-04-10T13:51:37.327Z,102180.49
2019-04-10T13:54:04.647Z,102185.89
2019-04-10T13:56:32.882Z,102173.79
2019-04-10T13:59:00.561Z,102190.45
2019-04-10T14:01:29.927Z,102197.29
2019-04-10T14:03:57.000Z,102189.30
2019-04-10T14:06:24.071Z,102189.98
2019-04-10T14:09:07.865Z,102201.64
2019-04-10T14:11:21.473Z,102196.59
2019-04-10T14:13:48.699Z,102199.02
2019-04-10T14:16:16.731Z,102197.62
2019-04-10T14:18:45.163Z,102209.77
2019-04-10T14:21:15.583Z,102203.68
2019-04-10T14:23:53.594Z,102202.38
2019-04-10T14:27:35.018Z,102211.53
2019-04-10T14:30:05.418Z,102214.05
2019-04-10T14:32:35.687Z,102221.70
2019-04-10T14:35:03.238Z,102218.92
2019-04-10T14:37:31.585Z,102232.81
2019-04-10T14:39:59.766Z,102232.79
2019-04-10T14:42:26.993Z,102226.55
2019-04-10T14:44:55.089Z,102223.46
2019-04-10T14:47:23.346Z,102234.38
2019-04-10T14:49:53.372Z,102221.66
2019-04-10T14:52:19.576Z,102222.45
2019-04-10T14:54:46.621Z,102234.72
2019-04-10T14:57:14.712Z,102223.23
2019-04-10T14:59:42.225Z,102229.33
2019-04-10T15:02:10.539Z,102233.20
2019-04-10T15:04:37.761Z,102228.90
2019-04-10T15:07:05.938Z,102222.73
2019-04-10T15:09:33.164Z,102241.53
2019-04-10T15:12:00.231Z,102240.22
2019-04-10T15:14:27.812Z,102237.05
2019-04-10T15:17:01.055Z,102232.67
2019-04-10T15:19:24.858Z,102243.06
2019-04-10T15:21:52.721Z,102242.61
2019-04-10T15:24:21.630Z,102241.75
2019-04-10T15:26:48.917Z,102247.43
2019-04-10T15:29:16.248Z,102255.25
2019-04-10T15:31:43.995Z,102260.52
2019-04-10T15:34:11.948Z,102256.99
2019-04-10T15:36:40.165Z,102243.03
2019-04-10T15:39:08.706Z,102262.52
2019-04-10T15:41:36.038Z,102252.30
2019-04-10T15:44:03.316Z,102266.23
2019-04-10T15:46:30.436Z,102261.45
2019-04-10T15:48:58.462Z,102259.70
2019-04-10T15:51:25.685Z,102257.80
2019-04-10T15:53:53.504Z,102260.22
2019-04-10T15:56:20.632Z,102258.47
2019-04-10T15:58:47.939Z,102259.34
2019-04-10T16:01:18.366Z,102267.53
2019-04-10T16:03:45.466Z,102272.68
2019-04-10T16:06:13.291Z,102264.41
2019-04-10T16:08:40.623Z,102261.37
2019-04-10T16:11:26.100Z,102256.85
2019-04-10T16:13:54.882Z,102262.94
2019-04-10T16:16:48.517Z,102260.75
2019-04-10T16:19:34.540Z,102263.87
2019-04-10T16:22:02.725Z,102258.65
2019-04-10T16:24:31.059Z,102257.59
2019-04-10T16:26:58.358Z,102262.77
2019-04-10T16:29:26.773Z,102258.91
2019-04-10T16:31:54.556Z,102244.53
2019-04-10T16:34:22.678Z,102257.20
2019-04-10T16:36:50.115Z,102256.77
2019-04-10T16:39:19.692Z,102257.20
2019-04-10T16:41:48.183Z,102258.50
2019-04-10T16:44:15.613Z,102258.93
2019-04-10T16:46:44.796Z,102260.58
2019-04-10T16:49:12.749Z,102267.57
2019-04-10T16:51:40.561Z,102265.38
2019-04-10T16:54:08.365Z,102264.08
2019-04-10T16:56:35.991Z,102263.20
2019-04-10T16:59:04.626Z,102261.89
2019-04-10T17:01:32.920Z,102271.89
2019-04-10T17:04:00.804Z,102283.25
2019-04-10T17:06:28.345Z,102280.19
2019-04-10T17:08:56.418Z,102276.23
2019-04-10T17:11:23.579Z,102278.77
2019-04-10T17:13:50.925Z,102277.40
2019-04-10T17:16:18.030Z,102277.71
2019-04-10T17:18:45.508Z,102276.34
2019-04-10T17:21:13.094Z,102277.63
2019-04-10T17:23:40.685Z,102280.16
2019-04-10T17:26:08.666Z,102283.62
2019-04-10T17:28:36.476Z,102281.45
2019-04-10T17:31:04.563Z,102284.50
2019-04-10T17:33:32.252Z,102296.19
2019-04-10T17:36:00.179Z,102293.12
2019-04-10T17:38:27.328Z,102298.33
2019-04-10T17:40:57.078Z,102300.09
2019-04-10T17:43:23.448Z,102299.20
2019-04-10T17:45:50.983Z,102303.58
2019-04-10T17:48:18.263Z,102309.14
2019-04-10T17:50:47.999Z,102311.91
2019-04-10T17:53:18.485Z,102314.06
2019-04-10T17:55:49.692Z,102318.84
2019-04-10T17:58:19.098Z,102320.14
2019-04-10T18:00:49.565Z,102327.03
2019-04-10T18:03:18.523Z,102329.52
2019-04-10T18:05:46.756Z,102334.32
2019-04-10T18:08:14.234Z,102335.63
2019-04-10T18:10:48.792Z,102329.98
2019-04-10T18:13:11.487Z,102339.55
2019-04-10T18:15:40.015Z,102341.70
2019-04-10T18:18:07.384Z,102344.70
2019-04-10T18:20:34.428Z,102345.98
2019-04-10T18:23:02.899Z,102348.23
2019-04-10T18:25:30.193Z,102350.78
2019-04-10T18:27:57.684Z,102352.51
2019-04-10T18:30:24.802Z,102354.27
2019-04-10T18:32:51.892Z,102353.45
2019-04-10T18:35:19.061Z,102354.27
2019-04-10T18:37:48.067Z,102355.13
2019-04-10T18:40:16.080Z,102357.77
2019-04-10T18:42:43.426Z,102362.98
2019-04-10T18:45:11.289Z,102359.92
2019-04-10T18:47:39.343Z,102361.98
2019-04-10T18:50:07.891Z,102363.74
2019-04-10T18:52:35.201Z,102365.93
2019-04-10T18:55:02.435Z,102372.45
2019-04-10T18:57:32.403Z,102367.14
2019-04-10T19:00:18.806Z,102366.26
2019-04-10T19:02:53.692Z,102363.22
2019-04-10T19:05:24.048Z,102375.83
2019-04-10T19:07:53.003Z,102367.98
2019-04-10T19:10:20.166Z,102367.56
2019-04-10T19:12:47.252Z,102367.56
2019-04-10T19:15:14.806Z,102371.91
2019-04-10T19:17:43.935Z,102373.21
2019-04-10T19:20:11.337Z,102373.64
2019-04-10T19:22:38.432Z,102370.14
2019-04-10T19:25:06.167Z,102368.38
2019-04-10T19:27:33.921Z,102366.23
2019-04-10T19:30:01.112Z,102367.98
2019-04-10T19:32:33.865Z,102367.62
2019-04-10T19:35:00.993Z,102375.89
2019-04-10T19:37:28.458Z,102370.17
2019-04-10T19:39:56.561Z,102370.23
2019-04-10T19:42:24.933Z,102366.32
2019-04-10T19:44:53.166Z,102371.48
2019-04-10T19:47:22.050Z,102371.48
2019-04-10T19:49:49.282Z,102369.75
2019-04-10T19:52:16.407Z,102375.89
2019-04-10T19:54:43.477Z,102368.45
2019-04-10T19:57:13.075Z,102367.14
2019-04-10T19:59:40.306Z,102373.27
2019-04-10T20:02:07.377Z,102367.14
2019-04-10T20:04:34.688Z,102371.45
2019-04-10T20:07:03.056Z,102371.81
2019-04-10T20:09:30.558Z,102383.95
2019-04-10T20:12:00.218Z,102378.73
2019-04-10T20:14:28.432Z,102380.03
2019-04-10T20:16:55.623Z,102386.89
2019-04-10T20:19:22.810Z,102387.80
2019-04-10T20:21:50.367Z,102380.85
2019-04-10T20:24:18.784Z,102380.85
2019-04-10T20:26:46.002Z,102382.16
2019-04-10T20:29:13.091Z,102380.47
2019-04-10T20:31:40.229Z,102384.41
2019-04-10T20:34:07.431Z,102386.56
2019-04-10T20:36:35.299Z,102390.91
2019-04-10T20:39:06.166Z,102383.01
2019-04-10T20:41:44.831Z,102386.02
2019-04-10T20:44:03.764Z,102386.89
2019-04-10T20:46:30.952Z,102391.69
2019-04-10T20:48:58.111Z,102389.53
2019-04-10T20:51:25.141Z,102392.89
2019-04-10T20:53:53.435Z,102395.05
2019-04-10T20:56:20.510Z,102393.36
2019-04-10T20:58:47.599Z,102394.66
2019-04-10T21:01:14.880Z,102399.00
2019-04-10T21:03:42.571Z,102396.39
2019-04-10T21:06:09.831Z,102408.98
2019-04-10T21:08:36.924Z,102408.14
2019-04-10T21:11:04.001Z,102406.48
2019-04-10T21:13:31.922Z,102408.92
2019-04-10T21:15:59.159Z,102413.66
2019-04-10T21:18:27.171Z,102414.89
2019-04-10T21:20:54.309Z,102412.70
2019-04-10T21:23:21.714Z,102423.60
2019-04-10T21:25:49.814Z,102426.64
2019-04-10T21:28:17.016Z,102421.31
2019-04-10T21:31:13.816Z,102430.00
2019-04-10T21:33:59.437Z,102429.53
2019-04-10T21:36:26.518Z,102432.86
2019-04-10T21:38:54.626Z,102436.28
2019-04-10T21:41:22.092Z,102431.77
2019-04-10T21:43:50.846Z,102429.23
2019-04-10T21:46:18.159Z,102431.84
2019-04-10T21:48:45.234Z,102432.37
2019-04-10T21:51:12.294Z,102431.06
2019-04-10T21:53:41.203Z,102436.28
2019-04-10T21:56:08.507Z,102430.11
2019-04-10T21:58:36.680Z,102435.34
2019-04-10T22:01:05.871Z,102429.23
2019-04-10T22:03:33.765Z,102434.16
2019-04-10T22:06:09.269Z,102431.73
2019-04-10T22:08:41.729Z,102423.11
2019-04-10T22:11:08.806Z,102431.86
2019-04-10T22:13:37.981Z,102435.00
2019-04-10T22:16:07.260Z,102431.08
2019-04-10T22:18:34.336Z,102428.08
2019-04-10T22:21:01.516Z,102429.38
2019-04-10T22:23:28.740Z,102439.02
2019-04-10T22:25:56.318Z,102426.78
2019-04-10T22:28:23.653Z,102427.20
2019-04-10T22:30:50.723Z,102426.31
2019-04-10T22:33:18.174Z,102428.50
2019-04-10T22:35:46.282Z,102427.69
2019-04-10T22:38:13.459Z,102430.34
2019-04-10T22:40:40.529Z,102425.99
2019-04-10T22:43:07.610Z,102426.84
2019-04-10T22:45:35.918Z,102428.60
2019-04-10T22:48:04.181Z,102430.40
2019-04-10T22:50:31.343Z,102431.64
2019-04-10T22:52:59.260Z,102427.27
2019-04-10T22:55:26.590Z,102427.20
2019-04-10T22:57:54.725Z,102429.81
2019-04-10T23:00:41.749Z,102428.05
2019-04-10T23:03:09.015Z,102426.28
2019-04-10T23:05:36.469Z,102419.76
2019-04-10T23:08:03.706Z,102418.80
2019-04-10T23:10:30.981Z,102416.59
2019-04-10T23:13:02.864Z,102419.98
2019-04-10T23:15:27.327Z,102413.35
2019-04-10T23:17:54.352Z,102413.28
2019-04-10T23:20:21.424Z,102419.45
2019-04-10T23:22:48.863Z,102421.50
2019-04-10T23:25:16.167Z,102423.23
2019-04-10T23:27:44.095Z,102421.86
2019-04-10T23:30:15.656Z,102424.44
2019-04-10T23:32:43.606Z,102429.69
2019-04-10T23:35:11.596Z,102427.96
2019-04-10T23:37:39.209Z,102425.84
2019-04-10T23:40:06.970Z,102431.00
2019-04-10T23:42:34.036Z,102428.77
2019-04-10T23:45:01.734Z,102428.77
2019-04-10T23:47:28.883Z,102429.13
2019-04-10T23:49:57.767Z,102441.76
2019-04-10T23:52:25.508Z,102435.69
2019-04-10T23:54:53.316Z,102442.64
2019-04-10T23:57:21.194Z,102446.09
2019-04-10T23:59:48.422Z,102443.48
